Torm Laura — OULU2 — position and weather

sailwx.info

Track history (hours):
 
Tides and Currents Weather Stations Pressure Air Temp Water Temp Dewpoint Dewpoint Depression Visibility Wind Speed Wind Dir Waves Ship Positions

Torm Laura

Last reported at 2018-Jul-18 22:00 UTC. Time now 2018-Jul-18 22:13 UTC.
Position N 50°06' W 001°28'.

Length 183 m; draft 8 m.

Type: Ship. MMSI: 220603000.

Date/timePositionNaut miles runAvg speedWind from/ knotsBaromVisibWave heightAir tempDewpointWater temp
2018-Jul-18 22:00N 50°06' W 001°28'5 9.2
2018-Jul-18 21:30N 50°08' W 001°35'3 6.5
2018-Jul-18 21:00N 50°11' W 001°33'5 9.8
2018-Jul-18 20:30N 50°12' W 001°25'510.6
2018-Jul-18 20:00N 50°13' W 001°17'611.0
2018-Jul-18 19:30N 50°15' W 001°09'611.6
2018-Jul-18 19:00N 50°17' W 001°01'612.2
2018-Jul-18 18:30N 50°19' W 000°52'510.3
2018-Jul-18 18:00N 50°21' W 000°44'5 9.7
2018-Jul-18 17:30N 50°22' W 000°37'5 9.3
2018-Jul-18 17:00N 50°23' W 000°30'4 8.8
2018-Jul-18 16:30N 50°24' W 000°23'3 6.8
2018-Jul-18 16:00N 50°23' W 000°18'4 7.3
2018-Jul-18 15:30N 50°20' W 000°15'4 7.1
2018-Jul-18 15:00N 50°19' W 000°20'4 8.1
2018-Jul-18 14:30N 50°18' W 000°26'9 9.1
2018-Jul-18 13:30N 50°15' W 000°40'510.0
2018-Jul-18 13:00N 50°14' W 000°47'510.4
2018-Jul-18 12:30N 50°12' W 000°55'510.7
2018-Jul-18 12:00N 50°11' W 001°03'510.6
2018-Jul-18 11:30N 50°10' W 001°11'15 8.0
2018-Jul-18 09:34N 50°10' W 001°35'1 6.3
2018-Jul-18 09:21N 50°11' W 001°34'5 7.3
2018-Jul-18 08:42N 50°13' W 001°27'12 9.3
2018-Jul-18 07:24N 50°16' W 001°08'717.5
2018-Jul-18 07:00N 50°18' W 000°58'814.9
2018-Jul-18 06:27N 50°20' W 000°46'4 9.6
2018-Jul-18 06:00N 50°21' W 000°39'5 9.3
2018-Jul-18 05:30N 50°22' W 000°32'4 9.0
2018-Jul-18 05:00N 50°23' W 000°25'4 8.4
2018-Jul-18 04:30N 50°25' W 000°19'4 7.2
2018-Jul-18 04:00N 50°22' W 000°16'31 8.1
2018-Jul-18 00:09N 50°11' W 001°01'11 2.5
2018-Jul-17 19:49N 50°14' W 001°18'3 8.4
2018-Jul-17 19:26N 50°15' W 001°13'4 9.2
2018-Jul-17 19:00N 50°16' W 001°07'5 9.7
2018-Jul-17 18:30N 50°17' W 000°60'5 9.8
2018-Jul-17 18:00N 50°18' W 000°52'5 9.5
2018-Jul-17 17:28N 50°20' W 000°45'4 9.2
2018-Jul-17 17:00N 50°21' W 000°38'4 8.8
2018-Jul-17 16:30N 50°22' W 000°32'4 8.3
2018-Jul-17 16:00N 50°23' W 000°25'4 7.9
2018-Jul-17 15:30N 50°24' W 000°19'3 6.5
2018-Jul-17 15:00N 50°23' W 000°15'3 5.1
2018-Jul-17 14:30N 50°20' W 000°15'4 7.8
2018-Jul-17 13:58N 50°19' W 000°22'19 9.5
2018-Jul-17 11:56N 50°13' W 000°50'510.8
2018-Jul-17 11:28N 50°11' W 000°58'711.0
2018-Jul-17 10:49N 50°10' W 001°09'12 9.2
2018-Jul-17 09:31N 50°02' W 001°23'4 5.5
2018-Jul-17 08:44N 49°59' W 001°17'1 6.1
2018-Jul-17 08:30N 49°59' W 001°15'4 7.0
2018-Jul-17 07:56N 49°57' W 001°10'3 7.9
2018-Jul-17 07:30N 49°56' W 001°05'4 8.4
2018-Jul-17 07:00N 49°54' W 000°59'4 8.6
2018-Jul-17 06:30N 49°52' W 000°53'4 8.9
2018-Jul-17 06:00N 49°51' W 000°46'4 7.3
2018-Jul-17 05:28N 49°48' W 000°42'3 7.3
2018-Jul-17 05:00N 49°44' W 000°41'4 7.9
2018-Jul-17 04:30N 49°41' W 000°39'4 7.2
2018-Jul-17 04:00N 49°39' W 000°34'0 0.6
2018-Jul-17 03:30N 49°39' W 000°35'2 3.9
2018-Jul-17 03:00N 49°39' W 000°38'2 4.3
2018-Jul-17 02:30N 49°39' W 000°41'2 4.7
2018-Jul-17 01:59N 49°39' W 000°45'2 4.7
2018-Jul-17 01:30N 49°39' W 000°48'1 1.6
2018-Jul-17 00:59N 49°39' W 000°47'2 3.5
2018-Jul-17 00:30N 49°39' W 000°44'3 3.2
2018-Jul-16 23:30N 49°39' W 000°39'1 2.7
2018-Jul-16 23:00N 49°39' W 000°37'1 2.5
2018-Jul-16 22:30N 49°39' W 000°36'1 2.4
2018-Jul-16 22:00N 49°39' W 000°34'1 2.4
2018-Jul-16 21:30N 49°39' W 000°32'1 1.9
2018-Jul-16 21:00N 49°39' W 000°33'3 7.0
2018-Jul-16 20:30N 49°39' W 000°39'3 6.4
2018-Jul-16 20:00N 49°40' W 000°44'3 5.8
2018-Jul-16 19:30N 49°40' W 000°48'2 3.8
2018-Jul-16 19:00N 49°41' W 000°46'3 6.3
2018-Jul-16 18:30N 49°43' W 000°42'4 7.1
2018-Jul-16 18:00N 49°42' W 000°36'2 4.9
2018-Jul-16 17:30N 49°43' W 000°33'2 3.8
2018-Jul-16 17:00N 49°45' W 000°34'1 2.7
2018-Jul-16 16:30N 49°43' W 000°34'3 5.8
2018-Jul-16 16:00N 49°40' W 000°33'3 6.2
2018-Jul-16 15:30N 49°38' W 000°32'3 6.4
2018-Jul-16 15:00N 49°35' W 000°30'3 6.9
2018-Jul-16 14:30N 49°33' W 000°25'5 9.1
2018-Jul-16 14:00N 49°32' W 000°18'5 9.7
2018-Jul-16 13:30N 49°30' W 000°11'5 9.7
2018-Jul-16 13:00N 49°29' W 000°04'5 9.9
2018-Jul-16 12:30N 49°27' E 000°03'612.0
2018-Jul-16 12:00N 49°26' E 000°12'510.9
2018-Jul-16 11:30N 49°26' E 000°20'4 8.7
2018-Jul-16 11:00N 49°28' E 000°27'3 6.2
2018-Jul-16 10:31N 49°29' E 000°31'4 6.9
2018-Jul-16 10:00N 49°26' E 000°34'4 8.4
2018-Jul-16 09:30N 49°28' E 000°40'4 8.3
2018-Jul-16 09:00N 49°31' E 000°45'510.7
2018-Jul-16 08:30N 49°27' E 000°49'3 5.9
2018-Jul-16 08:01N 49°25' E 000°52'5 9.2
2018-Jul-16 07:31N 49°29' E 000°54'510.3
2018-Jul-16 07:00N 49°24' E 000°55'4 7.2
2018-Jul-16 06:30N 49°21' E 000°59'2 4.4
2018-Jul-16 06:00N 49°23' E 001°01'0 0.3
2018-Jul-16 05:30N 49°23' E 001°01'0 0.0
2018-Jul-16 04:55N 49°23' E 001°01'0 0.0
2018-Jul-16 04:28N 49°23' E 001°01'0 0.0
2018-Jul-16 03:58N 49°23' E 001°01'0 0.0
2018-Jul-16 03:28N 49°23' E 001°01'0 0.0
2018-Jul-16 02:58N 49°23' E 001°01'0 0.0
2018-Jul-16 02:25N 49°23' E 001°01'0 0.0
2018-Jul-16 01:55N 49°23' E 001°01'0 0.0
2018-Jul-16 01:28N 49°23' E 001°01'0 0.0
2018-Jul-16 00:58N 49°23' E 001°01'0 0.0
2018-Jul-16 00:28N 49°23' E 001°01'0 0.0
2018-Jul-15 23:58N 49°23' E 001°01'0 0.0
2018-Jul-15 23:25N 49°23' E 001°01'0 0.0
2018-Jul-15 22:58N 49°23' E 001°01'0 0.0
2018-Jul-15 22:25N 49°23' E 001°01'0 0.0
2018-Jul-15 21:58N 49°23' E 001°01'0 0.0
2018-Jul-15 21:25N 49°23' E 001°01'0 0.0
2018-Jul-15 20:43N 49°23' E 001°01'0 0.0
2018-Jul-15 20:28N 49°23' E 001°01'0 0.0
2018-Jul-15 19:55N 49°23' E 001°01'0 0.0
2018-Jul-15 19:28N 49°23' E 001°01'0 0.0
2018-Jul-15 18:58N 49°23' E 001°01'0 0.0
2018-Jul-15 18:25N 49°23' E 001°01'0 0.0
2018-Jul-15 17:55N 49°23' E 001°01'0 0.0
2018-Jul-15 17:28N 49°23' E 001°01'0 0.0
2018-Jul-15 16:58N 49°23' E 001°01'0 0.0
2018-Jul-15 16:28N 49°23' E 001°01'0 0.0
2018-Jul-15 15:58N 49°23' E 001°01'0 0.0
2018-Jul-15 15:28N 49°23' E 001°01'0 0.0
2018-Jul-15 14:55N 49°23' E 001°01'0 0.0
2018-Jul-15 14:25N 49°23' E 001°01'0 0.0
2018-Jul-15 13:58N 49°23' E 001°01'0 0.0
2018-Jul-15 13:28N 49°23' E 001°01'0 0.0
2018-Jul-15 12:58N 49°23' E 001°01'0 0.0
2018-Jul-15 12:25N 49°23' E 001°01'0 0.0
2018-Jul-15 11:58N 49°23' E 001°01'0 0.0
2018-Jul-15 11:28N 49°23' E 001°01'0 0.0
2018-Jul-15 10:58N 49°23' E 001°01'0 0.0
2018-Jul-15 10:28N 49°23' E 001°01'0 0.0
2018-Jul-15 09:58N 49°23' E 001°01'0 0.0
2018-Jul-15 09:25N 49°23' E 001°01'0 0.0
2018-Jul-15 08:58N 49°23' E 001°01'0 0.0
2018-Jul-15 08:28N 49°23' E 001°01'0 0.0
2018-Jul-15 07:58N 49°23' E 001°01'0 0.0
2018-Jul-15 07:28N 49°23' E 001°01'0 0.0
2018-Jul-15 06:55N 49°23' E 001°01'0 0.0
2018-Jul-15 06:28N 49°23' E 001°01'0 0.1
2018-Jul-15 06:00N 49°23' E 001°01'2 3.3
2018-Jul-15 05:30N 49°22' E 000°60'0 0.0
2018-Jul-15 04:57N 49°22' E 000°60'0 0.0
2018-Jul-15 04:27N 49°22' E 000°60'0 0.0
2018-Jul-15 03:57N 49°22' E 000°60'0 0.0
2018-Jul-15 03:30N 49°22' E 000°60'0 0.0
2018-Jul-15 02:57N 49°22' E 000°60'0 0.0
2018-Jul-15 02:27N 49°22' E 000°60'0 0.0
2018-Jul-15 02:00N 49°22' E 000°60'0 0.0
2018-Jul-15 01:30N 49°22' E 000°60'0 0.0
2018-Jul-15 00:57N 49°22' E 000°60'0 0.0
2018-Jul-15 00:30N 49°22' E 000°60'0 0.0
2018-Jul-15 00:00N 49°22' E 000°60'0 0.0
2018-Jul-14 23:30N 49°22' E 000°60'0 0.0
2018-Jul-14 22:57N 49°22' E 000°60'0 0.0
2018-Jul-14 22:27N 49°22' E 000°60'0 0.0
2018-Jul-14 21:57N 49°22' E 000°60'0 0.0
2018-Jul-14 21:21N 49°22' E 000°60'0 0.0
2018-Jul-14 20:57N 49°22' E 000°60'0 0.0
2018-Jul-14 20:30N 49°22' E 000°60'0 0.0
2018-Jul-14 19:57N 49°22' E 000°60'0 0.0
2018-Jul-14 19:27N 49°22' E 000°60'0 0.0
2018-Jul-14 18:57N 49°22' E 000°60'0 0.0
2018-Jul-14 18:27N 49°22' E 000°60'0 0.0
2018-Jul-14 17:57N 49°22' E 000°60'0 0.0
2018-Jul-14 17:27N 49°22' E 000°60'0 0.0
2018-Jul-14 16:57N 49°22' E 000°60'0 0.0
2018-Jul-14 16:27N 49°22' E 000°60'0 0.0
2018-Jul-14 15:57N 49°22' E 000°60'0 0.0
2018-Jul-14 15:30N 49°22' E 000°60'0 0.0
2018-Jul-14 14:57N 49°22' E 000°60'0 0.0
2018-Jul-14 13:57N 49°22' E 000°60'0 0.0
2018-Jul-14 13:21N 49°22' E 000°60'0 0.0
2018-Jul-14 12:54N 49°22' E 000°60'0 0.0
2018-Jul-14 12:27N 49°22' E 000°60'0 0.0
2018-Jul-14 12:00N 49°22' E 000°60'0 0.0
2018-Jul-14 11:30N 49°22' E 000°60'0 0.0
2018-Jul-14 11:00N 49°22' E 000°60'0 0.0
2018-Jul-14 10:27N 49°22' E 000°60'0 0.0
2018-Jul-14 09:57N 49°22' E 000°60'0 0.0
2018-Jul-14 09:27N 49°22' E 000°60'0 0.0
2018-Jul-14 09:00N 49°22' E 000°60'0 0.0
2018-Jul-14 08:30N 49°22' E 000°60'0 0.0
2018-Jul-14 07:57N 49°22' E 000°60'0 0.0
2018-Jul-14 07:30N 49°22' E 000°60'0 0.0
2018-Jul-14 06:57N 49°22' E 000°60'0 0.0
2018-Jul-14 06:27N 49°22' E 000°60'0 0.0
2018-Jul-14 05:57N 49°22' E 000°60'0 0.0
2018-Jul-14 05:30N 49°22' E 000°60'0 0.0
2018-Jul-14 05:00N 49°22' E 000°60'0 0.0
2018-Jul-14 04:30N 49°22' E 000°60'0 0.0
2018-Jul-14 03:57N 49°22' E 000°60'0 0.0
2018-Jul-14 03:27N 49°22' E 000°60'0 0.0
2018-Jul-14 02:57N 49°22' E 000°60'0 0.0
2018-Jul-14 02:30N 49°22' E 000°60'0 0.0
2018-Jul-14 01:57N 49°22' E 000°60'0 0.0
2018-Jul-14 01:27N 49°22' E 000°60'0 0.0
2018-Jul-14 00:57N 49°22' E 000°60'0 0.0
2018-Jul-14 00:27N 49°22' E 000°60'0 0.0
2018-Jul-14 00:00N 49°22' E 000°60'0 0.0
2018-Jul-13 23:30N 49°22' E 000°60'0 0.0
2018-Jul-13 23:00N 49°22' E 000°60'0 0.0
2018-Jul-13 22:30N 49°22' E 000°60'0 0.0
2018-Jul-13 22:00N 49°22' E 000°60'0 0.0
2018-Jul-13 21:27N 49°22' E 000°60'0 0.0
2018-Jul-13 21:00N 49°22' E 000°60'0 0.0
2018-Jul-13 20:27N 49°22' E 000°60'0 0.0
2018-Jul-13 20:00N 49°22' E 000°60'0 0.0
2018-Jul-13 19:27N 49°22' E 000°60'0 0.0
2018-Jul-13 18:57N 49°22' E 000°60'0 0.0
2018-Jul-13 18:27N 49°22' E 000°60'0 0.0
2018-Jul-13 17:57N 49°22' E 000°60'0 0.0
2018-Jul-13 17:27N 49°22' E 000°60'0 0.0
2018-Jul-13 16:57N 49°22' E 000°60'0 0.0
2018-Jul-13 16:27N 49°22' E 000°60'0 0.0
2018-Jul-13 15:57N 49°22' E 000°60'0 0.0
2018-Jul-13 15:21N 49°22' E 000°60'0 0.0
2018-Jul-13 14:51N 49°22' E 000°60'0 0.0
2018-Jul-13 14:21N 49°22' E 000°60'0 0.0
2018-Jul-13 13:21N 49°22' E 000°60'0 0.0
2018-Jul-13 12:51N 49°22' E 000°60'0 0.0
2018-Jul-13 12:27N 49°22' E 000°60'0 0.0
2018-Jul-13 11:57N 49°22' E 000°60'0 0.0
2018-Jul-13 11:24N 49°22' E 000°60'0 0.0
2018-Jul-13 10:51N 49°22' E 000°60'0 0.0
2018-Jul-13 10:27N 49°22' E 000°60'0 0.0
2018-Jul-13 10:00N 49°22' E 000°60'0 0.0
2018-Jul-13 09:27N 49°22' E 000°60'0 0.0
2018-Jul-13 08:57N 49°22' E 000°60'0 0.0
2018-Jul-13 08:27N 49°22' E 000°60'0 0.0
2018-Jul-13 07:57N 49°22' E 000°60'0 0.0
2018-Jul-13 07:27N 49°22' E 000°60'0 0.0
2018-Jul-13 06:51N 49°22' E 000°60'0 0.0
2018-Jul-13 06:27N 49°22' E 000°60'0 0.0
2018-Jul-13 05:57N 49°22' E 000°60'0 0.0
2018-Jul-13 05:30N 49°22' E 000°60'0 0.0
2018-Jul-13 04:57N 49°22' E 000°60'0 0.0
2018-Jul-13 04:30N 49°22' E 000°60'0 0.0
2018-Jul-13 03:51N 49°22' E 000°60'0 0.0
2018-Jul-13 03:30N 49°22' E 000°60'0 0.0
2018-Jul-13 02:51N 49°22' E 000°60'0 0.0
2018-Jul-13 02:30N 49°22' E 000°60'0 0.0
2018-Jul-13 01:57N 49°22' E 000°60'0 0.0
2018-Jul-13 01:30N 49°22' E 000°60'0 0.1
2018-Jul-13 01:00N 49°22' E 000°60'2 5.0
2018-Jul-13 00:31N 49°21' E 000°56'510.1
2018-Jul-13 00:00N 49°26' E 000°56'3 7.1
2018-Jul-12 23:31N 49°28' E 000°52'5 9.9
2018-Jul-12 23:00N 49°24' E 000°51'5 9.1
2018-Jul-12 22:30N 49°28' E 000°49'5 9.3
2018-Jul-12 22:01N 49°31' E 000°44'5 9.1
2018-Jul-12 21:31N 49°28' E 000°40'4 8.8
2018-Jul-12 21:00N 49°27' E 000°33'4 7.9
2018-Jul-12 20:30N 49°28' E 000°27'612.6
2018-Jul-12 20:00N 49°26' E 000°18'611.6
2018-Jul-12 19:30N 49°26' E 000°09'612.1
2018-Jul-12 19:00N 49°28' E 000°00'510.2
2018-Jul-12 18:30N 49°29' W 000°07'1 2.5
2018-Jul-12 17:59N 49°29' W 000°09'0 0.1
2018-Jul-12 17:29N 49°29' W 000°09'0 0.1
2018-Jul-12 16:56N 49°29' W 000°10'0 0.1
2018-Jul-12 16:29N 49°29' W 000°10'0 0.0
2018-Jul-12 15:59N 49°29' W 000°10'0 0.0
2018-Jul-12 15:29N 49°29' W 000°10'0 0.0
2018-Jul-12 14:59N 49°29' W 000°10'0 0.0
2018-Jul-12 14:29N 49°29' W 000°10'0 0.0
2018-Jul-12 13:59N 49°29' W 000°10'0 0.0
2018-Jul-12 13:29N 49°29' W 000°10'0 0.0
2018-Jul-12 12:59N 49°29' W 000°10'0 0.0
2018-Jul-12 12:28N 49°29' W 000°10'0 0.0
2018-Jul-12 11:58N 49°29' W 000°10'0 0.1
2018-Jul-12 11:28N 49°29' W 000°10'0 0.1
2018-Jul-12 10:58N 49°29' W 000°10'0 0.1
2018-Jul-12 10:25N 49°29' W 000°09'0 0.1
2018-Jul-12 09:58N 49°29' W 000°09'0 0.2
2018-Jul-12 09:28N 49°29' W 000°09'0 0.1
2018-Jul-12 08:58N 49°29' W 000°09'0 0.0
2018-Jul-12 08:25N 49°29' W 000°09'0 0.0
2018-Jul-12 07:58N 49°29' W 000°09'0 0.0
2018-Jul-12 07:28N 49°29' W 000°09'0 0.0
2018-Jul-12 06:58N 49°29' W 000°09'0 0.1
2018-Jul-12 06:28N 49°29' W 000°09'0 0.1
2018-Jul-12 05:55N 49°29' W 000°09'0 0.1
2018-Jul-12 05:28N 49°29' W 000°09'0 0.1
2018-Jul-12 04:58N 49°29' W 000°09'0 0.1
2018-Jul-12 04:28N 49°29' W 000°10'0 0.1
2018-Jul-12 03:58N 49°29' W 000°10'0 0.0
2018-Jul-12 03:25N 49°29' W 000°10'0 0.0
2018-Jul-12 02:58N 49°29' W 000°10'0 0.0
2018-Jul-12 02:28N 49°29' W 000°10'0 0.0
2018-Jul-12 01:58N 49°29' W 000°10'0 0.0
2018-Jul-12 01:28N 49°29' W 000°10'0 0.0
2018-Jul-12 00:58N 49°29' W 000°10'0 0.0
2018-Jul-12 00:28N 49°29' W 000°10'0 0.0
2018-Jul-11 23:58N 49°29' W 000°10'0 0.0
2018-Jul-11 23:28N 49°29' W 000°10'0 0.0
2018-Jul-11 22:58N 49°29' W 000°10'0 0.1
2018-Jul-11 22:28N 49°29' W 000°10'0 0.2
2018-Jul-11 21:58N 49°29' W 000°09'0 0.1
2018-Jul-11 21:25N 49°29' W 000°09'0 0.2
2018-Jul-11 20:58N 49°29' W 000°09'0 0.1
2018-Jul-11 20:28N 49°29' W 000°09'0 0.0
2018-Jul-11 19:58N 49°29' W 000°09'0 0.1
2018-Jul-11 19:28N 49°29' W 000°09'0 0.1
2018-Jul-11 18:58N 49°29' W 000°09'0 0.1
2018-Jul-11 18:28N 49°29' W 000°09'0 0.3
2018-Jul-11 18:00N 49°29' W 000°10'2 5.0
2018-Jul-11 17:30N 49°29' W 000°13'4 8.8
2018-Jul-11 17:00N 49°32' W 000°19'611.8
2018-Jul-11 16:30N 49°35' W 000°27'611.8
2018-Jul-11 15:58N 49°39' W 000°34'511.6
2018-Jul-11 15:30N 49°42' W 000°40'610.9
2018-Jul-11 14:56N 49°47' W 000°47'510.5
2018-Jul-11 14:30N 49°50' W 000°52'34 8.0
2018-Jul-11 10:19N 50°01' W 001°41'5 9.8
2018-Jul-11 09:49N 49°59' W 001°48'410.5
2018-Jul-11 09:25N 49°58' W 001°55'611.2
2018-Jul-11 08:55N 49°57' W 002°03'712.0
2018-Jul-11 08:19N 49°55' W 002°14'412.3
2018-Jul-11 08:00N 49°54' W 002°20'713.9
2018-Jul-11 07:30N 49°52' W 002°30'612.6
2018-Jul-11 07:00N 49°51' W 002°40'612.7
2018-Jul-11 06:30N 49°51' W 002°50'612.5
2018-Jul-11 06:00N 49°50' W 002°59'612.4
2018-Jul-11 05:30N 49°50' W 003°09'612.3
2018-Jul-11 05:00N 49°47' W 003°17'612.6
2018-Jul-11 04:30N 49°44' W 003°26'612.4
2018-Jul-11 04:00N 49°40' W 003°33'1412.3
2018-Jul-11 02:52N 49°31' W 003°50'5011.3
2018-Jul-10 22:28N 49°06' W 004°56'610.3
2018-Jul-10 21:53N 49°02' W 005°03'410.0
2018-Jul-10 21:31N 49°00' W 005°08'13 9.7
2018-Jul-10 20:08N 48°53' W 005°24'3 9.6
2018-Jul-10 19:51N 48°51' W 005°28'4 9.5
2018-Jul-10 19:24N 48°49' W 005°33'5 9.3
2018-Jul-10 18:53N 48°46' W 005°38'10 9.4
2018-Jul-10 17:48N 48°36' W 005°46'46 9.8
2018-Jul-10 13:06N 47°56' W 006°19'711.3
2018-Jul-10 12:29N 47°50' W 006°24'711.6
2018-Jul-10 11:54N 47°44' W 006°29'1110.9
2018-Jul-10 10:51N 47°34' W 006°37'511.7
2018-Jul-10 10:27N 47°30' W 006°41'810.8
2018-Jul-10 09:43N 47°23' W 006°46'6110.4
2018-Jul-10 03:52N 46°29' W 007°28'410.6
2018-Jul-10 03:31N 46°26' W 007°31'510.6
2018-Jul-10 03:00N 46°21' W 007°35'11210.4
2018-Jul-09 16:12N 44°42' W 008°50'410.3
2018-Jul-09 15:49N 44°39' W 008°52'310.6
2018-Jul-09 15:30N 44°36' W 008°55'510.5
2018-Jul-09 15:00N 44°31' W 008°58'510.0
2018-Jul-09 14:27N 44°27' W 009°02'510.2
2018-Jul-09 14:00N 44°23' W 009°05'510.4
2018-Jul-09 13:30N 44°18' W 009°09'510.4
2018-Jul-09 13:00N 44°14' W 009°12'  
Track history (hours):
 
Tides and Currents Weather Stations Pressure Air Temp Water Temp Dewpoint Dewpoint Depression Visibility Wind Speed Wind Dir Waves Ship Positions

Torm Laura

Last reported at 2018-Jul-18 22:00 UTC. Time now 2018-Jul-18 22:13 UTC.
Position N 50°06' W 001°28'.

Length 183 m; draft 8 m.

Type: Ship. MMSI: 220603000.

Date/timePositionNaut miles runAvg speedWind from/ knotsBaromVisibWave heightAir tempDewpointWater temp
2018-Jul-18 22:00N 50°06' W 001°28'5 9.2
2018-Jul-18 21:30N 50°08' W 001°35'3 6.5
2018-Jul-18 21:00N 50°11' W 001°33'5 9.8
2018-Jul-18 20:30N 50°12' W 001°25'510.6
2018-Jul-18 20:00N 50°13' W 001°17'611.0
2018-Jul-18 19:30N 50°15' W 001°09'611.6
2018-Jul-18 19:00N 50°17' W 001°01'612.2
2018-Jul-18 18:30N 50°19' W 000°52'510.3
2018-Jul-18 18:00N 50°21' W 000°44'5 9.7
2018-Jul-18 17:30N 50°22' W 000°37'5 9.3
2018-Jul-18 17:00N 50°23' W 000°30'4 8.8
2018-Jul-18 16:30N 50°24' W 000°23'3 6.8
2018-Jul-18 16:00N 50°23' W 000°18'4 7.3
2018-Jul-18 15:30N 50°20' W 000°15'4 7.1
2018-Jul-18 15:00N 50°19' W 000°20'4 8.1
2018-Jul-18 14:30N 50°18' W 000°26'9 9.1
2018-Jul-18 13:30N 50°15' W 000°40'510.0
2018-Jul-18 13:00N 50°14' W 000°47'510.4
2018-Jul-18 12:30N 50°12' W 000°55'510.7
2018-Jul-18 12:00N 50°11' W 001°03'510.6
2018-Jul-18 11:30N 50°10' W 001°11'15 8.0
2018-Jul-18 09:34N 50°10' W 001°35'1 6.3
2018-Jul-18 09:21N 50°11' W 001°34'5 7.3
2018-Jul-18 08:42N 50°13' W 001°27'12 9.3
2018-Jul-18 07:24N 50°16' W 001°08'717.5
2018-Jul-18 07:00N 50°18' W 000°58'814.9
2018-Jul-18 06:27N 50°20' W 000°46'4 9.6
2018-Jul-18 06:00N 50°21' W 000°39'5 9.3
2018-Jul-18 05:30N 50°22' W 000°32'4 9.0
2018-Jul-18 05:00N 50°23' W 000°25'4 8.4
2018-Jul-18 04:30N 50°25' W 000°19'4 7.2
2018-Jul-18 04:00N 50°22' W 000°16'31 8.1
2018-Jul-18 00:09N 50°11' W 001°01'11 2.5
2018-Jul-17 19:49N 50°14' W 001°18'3 8.4
2018-Jul-17 19:26N 50°15' W 001°13'4 9.2
2018-Jul-17 19:00N 50°16' W 001°07'5 9.7
2018-Jul-17 18:30N 50°17' W 000°60'5 9.8
2018-Jul-17 18:00N 50°18' W 000°52'5 9.5
2018-Jul-17 17:28N 50°20' W 000°45'4 9.2
2018-Jul-17 17:00N 50°21' W 000°38'4 8.8
2018-Jul-17 16:30N 50°22' W 000°32'4 8.3
2018-Jul-17 16:00N 50°23' W 000°25'4 7.9
2018-Jul-17 15:30N 50°24' W 000°19'3 6.5
2018-Jul-17 15:00N 50°23' W 000°15'3 5.1
2018-Jul-17 14:30N 50°20' W 000°15'4 7.8
2018-Jul-17 13:58N 50°19' W 000°22'19 9.5
2018-Jul-17 11:56N 50°13' W 000°50'510.8
2018-Jul-17 11:28N 50°11' W 000°58'711.0
2018-Jul-17 10:49N 50°10' W 001°09'12 9.2
2018-Jul-17 09:31N 50°02' W 001°23'4 5.5
2018-Jul-17 08:44N 49°59' W 001°17'1 6.1
2018-Jul-17 08:30N 49°59' W 001°15'4 7.0
2018-Jul-17 07:56N 49°57' W 001°10'3 7.9
2018-Jul-17 07:30N 49°56' W 001°05'4 8.4
2018-Jul-17 07:00N 49°54' W 000°59'4 8.6
2018-Jul-17 06:30N 49°52' W 000°53'4 8.9
2018-Jul-17 06:00N 49°51' W 000°46'4 7.3
2018-Jul-17 05:28N 49°48' W 000°42'3 7.3
2018-Jul-17 05:00N 49°44' W 000°41'4 7.9
2018-Jul-17 04:30N 49°41' W 000°39'4 7.2
2018-Jul-17 04:00N 49°39' W 000°34'0 0.6
2018-Jul-17 03:30N 49°39' W 000°35'2 3.9
2018-Jul-17 03:00N 49°39' W 000°38'2 4.3
2018-Jul-17 02:30N 49°39' W 000°41'2 4.7
2018-Jul-17 01:59N 49°39' W 000°45'2 4.7
2018-Jul-17 01:30N 49°39' W 000°48'1 1.6
2018-Jul-17 00:59N 49°39' W 000°47'2 3.5
2018-Jul-17 00:30N 49°39' W 000°44'3 3.2
2018-Jul-16 23:30N 49°39' W 000°39'1 2.7
2018-Jul-16 23:00N 49°39' W 000°37'1 2.5
2018-Jul-16 22:30N 49°39' W 000°36'1 2.4
2018-Jul-16 22:00N 49°39' W 000°34'1 2.4
2018-Jul-16 21:30N 49°39' W 000°32'1 1.9
2018-Jul-16 21:00N 49°39' W 000°33'3 7.0
2018-Jul-16 20:30N 49°39' W 000°39'3 6.4
2018-Jul-16 20:00N 49°40' W 000°44'3 5.8
2018-Jul-16 19:30N 49°40' W 000°48'2 3.8
2018-Jul-16 19:00N 49°41' W 000°46'3 6.3
2018-Jul-16 18:30N 49°43' W 000°42'4 7.1
2018-Jul-16 18:00N 49°42' W 000°36'2 4.9
2018-Jul-16 17:30N 49°43' W 000°33'2 3.8
2018-Jul-16 17:00N 49°45' W 000°34'1 2.7
2018-Jul-16 16:30N 49°43' W 000°34'3 5.8
2018-Jul-16 16:00N 49°40' W 000°33'3 6.2
2018-Jul-16 15:30N 49°38' W 000°32'3 6.4
2018-Jul-16 15:00N 49°35' W 000°30'3 6.9
2018-Jul-16 14:30N 49°33' W 000°25'5 9.1
2018-Jul-16 14:00N 49°32' W 000°18'5 9.7
2018-Jul-16 13:30N 49°30' W 000°11'5 9.7
2018-Jul-16 13:00N 49°29' W 000°04'5 9.9
2018-Jul-16 12:30N 49°27' E 000°03'612.0
2018-Jul-16 12:00N 49°26' E 000°12'510.9
2018-Jul-16 11:30N 49°26' E 000°20'4 8.7
2018-Jul-16 11:00N 49°28' E 000°27'3 6.2
2018-Jul-16 10:31N 49°29' E 000°31'4 6.9
2018-Jul-16 10:00N 49°26' E 000°34'4 8.4
2018-Jul-16 09:30N 49°28' E 000°40'4 8.3
2018-Jul-16 09:00N 49°31' E 000°45'510.7
2018-Jul-16 08:30N 49°27' E 000°49'3 5.9
2018-Jul-16 08:01N 49°25' E 000°52'5 9.2
2018-Jul-16 07:31N 49°29' E 000°54'510.3
2018-Jul-16 07:00N 49°24' E 000°55'4 7.2
2018-Jul-16 06:30N 49°21' E 000°59'2 4.4
2018-Jul-16 06:00N 49°23' E 001°01'0 0.3
2018-Jul-16 05:30N 49°23' E 001°01'0 0.0
2018-Jul-16 04:55N 49°23' E 001°01'0 0.0
2018-Jul-16 04:28N 49°23' E 001°01'0 0.0
2018-Jul-16 03:58N 49°23' E 001°01'0 0.0
2018-Jul-16 03:28N 49°23' E 001°01'0 0.0
2018-Jul-16 02:58N 49°23' E 001°01'0 0.0
2018-Jul-16 02:25N 49°23' E 001°01'0 0.0
2018-Jul-16 01:55N 49°23' E 001°01'0 0.0
2018-Jul-16 01:28N 49°23' E 001°01'0 0.0
2018-Jul-16 00:58N 49°23' E 001°01'0 0.0
2018-Jul-16 00:28N 49°23' E 001°01'0 0.0
2018-Jul-15 23:58N 49°23' E 001°01'0 0.0
2018-Jul-15 23:25N 49°23' E 001°01'0 0.0
2018-Jul-15 22:58N 49°23' E 001°01'0 0.0
2018-Jul-15 22:25N 49°23' E 001°01'0 0.0
2018-Jul-15 21:58N 49°23' E 001°01'0 0.0
2018-Jul-15 21:25N 49°23' E 001°01'0 0.0
2018-Jul-15 20:43N 49°23' E 001°01'0 0.0
2018-Jul-15 20:28N 49°23' E 001°01'0 0.0
2018-Jul-15 19:55N 49°23' E 001°01'0 0.0
2018-Jul-15 19:28N 49°23' E 001°01'0 0.0
2018-Jul-15 18:58N 49°23' E 001°01'0 0.0
2018-Jul-15 18:25N 49°23' E 001°01'0 0.0
2018-Jul-15 17:55N 49°23' E 001°01'0 0.0
2018-Jul-15 17:28N 49°23' E 001°01'0 0.0
2018-Jul-15 16:58N 49°23' E 001°01'0 0.0
2018-Jul-15 16:28N 49°23' E 001°01'0 0.0
2018-Jul-15 15:58N 49°23' E 001°01'0 0.0
2018-Jul-15 15:28N 49°23' E 001°01'0 0.0
2018-Jul-15 14:55N 49°23' E 001°01'0 0.0
2018-Jul-15 14:25N 49°23' E 001°01'0 0.0
2018-Jul-15 13:58N 49°23' E 001°01'0 0.0
2018-Jul-15 13:28N 49°23' E 001°01'0 0.0
2018-Jul-15 12:58N 49°23' E 001°01'0 0.0
2018-Jul-15 12:25N 49°23' E 001°01'0 0.0
2018-Jul-15 11:58N 49°23' E 001°01'0 0.0
2018-Jul-15 11:28N 49°23' E 001°01'0 0.0
2018-Jul-15 10:58N 49°23' E 001°01'0 0.0
2018-Jul-15 10:28N 49°23' E 001°01'0 0.0
2018-Jul-15 09:58N 49°23' E 001°01'0 0.0
2018-Jul-15 09:25N 49°23' E 001°01'0 0.0
2018-Jul-15 08:58N 49°23' E 001°01'0 0.0
2018-Jul-15 08:28N 49°23' E 001°01'0 0.0
2018-Jul-15 07:58N 49°23' E 001°01'0 0.0
2018-Jul-15 07:28N 49°23' E 001°01'0 0.0
2018-Jul-15 06:55N 49°23' E 001°01'0 0.0
2018-Jul-15 06:28N 49°23' E 001°01'0 0.1
2018-Jul-15 06:00N 49°23' E 001°01'2 3.3
2018-Jul-15 05:30N 49°22' E 000°60'0 0.0
2018-Jul-15 04:57N 49°22' E 000°60'0 0.0
2018-Jul-15 04:27N 49°22' E 000°60'0 0.0
2018-Jul-15 03:57N 49°22' E 000°60'0 0.0
2018-Jul-15 03:30N 49°22' E 000°60'0 0.0
2018-Jul-15 02:57N 49°22' E 000°60'0 0.0
2018-Jul-15 02:27N 49°22' E 000°60'0 0.0
2018-Jul-15 02:00N 49°22' E 000°60'0 0.0
2018-Jul-15 01:30N 49°22' E 000°60'0 0.0
2018-Jul-15 00:57N 49°22' E 000°60'0 0.0
2018-Jul-15 00:30N 49°22' E 000°60'0 0.0
2018-Jul-15 00:00N 49°22' E 000°60'0 0.0
2018-Jul-14 23:30N 49°22' E 000°60'0 0.0
2018-Jul-14 22:57N 49°22' E 000°60'0 0.0
2018-Jul-14 22:27N 49°22' E 000°60'0 0.0
2018-Jul-14 21:57N 49°22' E 000°60'0 0.0
2018-Jul-14 21:21N 49°22' E 000°60'0 0.0
2018-Jul-14 20:57N 49°22' E 000°60'0 0.0
2018-Jul-14 20:30N 49°22' E 000°60'0 0.0
2018-Jul-14 19:57N 49°22' E 000°60'0 0.0
2018-Jul-14 19:27N 49°22' E 000°60'0 0.0
2018-Jul-14 18:57N 49°22' E 000°60'0 0.0
2018-Jul-14 18:27N 49°22' E 000°60'0 0.0
2018-Jul-14 17:57N 49°22' E 000°60'0 0.0
2018-Jul-14 17:27N 49°22' E 000°60'0 0.0
2018-Jul-14 16:57N 49°22' E 000°60'0 0.0
2018-Jul-14 16:27N 49°22' E 000°60'0 0.0
2018-Jul-14 15:57N 49°22' E 000°60'0 0.0
2018-Jul-14 15:30N 49°22' E 000°60'0 0.0
2018-Jul-14 14:57N 49°22' E 000°60'0 0.0
2018-Jul-14 13:57N 49°22' E 000°60'0 0.0
2018-Jul-14 13:21N 49°22' E 000°60'0 0.0
2018-Jul-14 12:54N 49°22' E 000°60'0 0.0
2018-Jul-14 12:27N 49°22' E 000°60'0 0.0
2018-Jul-14 12:00N 49°22' E 000°60'0 0.0
2018-Jul-14 11:30N 49°22' E 000°60'0 0.0
2018-Jul-14 11:00N 49°22' E 000°60'0 0.0
2018-Jul-14 10:27N 49°22' E 000°60'0 0.0
2018-Jul-14 09:57N 49°22' E 000°60'0 0.0
2018-Jul-14 09:27N 49°22' E 000°60'0 0.0
2018-Jul-14 09:00N 49°22' E 000°60'0 0.0
2018-Jul-14 08:30N 49°22' E 000°60'0 0.0
2018-Jul-14 07:57N 49°22' E 000°60'0 0.0
2018-Jul-14 07:30N 49°22' E 000°60'0 0.0
2018-Jul-14 06:57N 49°22' E 000°60'0 0.0
2018-Jul-14 06:27N 49°22' E 000°60'0 0.0
2018-Jul-14 05:57N 49°22' E 000°60'0 0.0
2018-Jul-14 05:30N 49°22' E 000°60'0 0.0
2018-Jul-14 05:00N 49°22' E 000°60'0 0.0
2018-Jul-14 04:30N 49°22' E 000°60'0 0.0
2018-Jul-14 03:57N 49°22' E 000°60'0 0.0
2018-Jul-14 03:27N 49°22' E 000°60'0 0.0
2018-Jul-14 02:57N 49°22' E 000°60'0 0.0
2018-Jul-14 02:30N 49°22' E 000°60'0 0.0
2018-Jul-14 01:57N 49°22' E 000°60'0 0.0
2018-Jul-14 01:27N 49°22' E 000°60'0 0.0
2018-Jul-14 00:57N 49°22' E 000°60'0 0.0
2018-Jul-14 00:27N 49°22' E 000°60'0 0.0
2018-Jul-14 00:00N 49°22' E 000°60'0 0.0
2018-Jul-13 23:30N 49°22' E 000°60'0 0.0
2018-Jul-13 23:00N 49°22' E 000°60'0 0.0
2018-Jul-13 22:30N 49°22' E 000°60'0 0.0
2018-Jul-13 22:00N 49°22' E 000°60'0 0.0
2018-Jul-13 21:27N 49°22' E 000°60'0 0.0
2018-Jul-13 21:00N 49°22' E 000°60'0 0.0
2018-Jul-13 20:27N 49°22' E 000°60'0 0.0
2018-Jul-13 20:00N 49°22' E 000°60'0 0.0
2018-Jul-13 19:27N 49°22' E 000°60'0 0.0
2018-Jul-13 18:57N 49°22' E 000°60'0 0.0
2018-Jul-13 18:27N 49°22' E 000°60'0 0.0
2018-Jul-13 17:57N 49°22' E 000°60'0 0.0
2018-Jul-13 17:27N 49°22' E 000°60'0 0.0
2018-Jul-13 16:57N 49°22' E 000°60'0 0.0
2018-Jul-13 16:27N 49°22' E 000°60'0 0.0
2018-Jul-13 15:57N 49°22' E 000°60'0 0.0
2018-Jul-13 15:21N 49°22' E 000°60'0 0.0
2018-Jul-13 14:51N 49°22' E 000°60'0 0.0
2018-Jul-13 14:21N 49°22' E 000°60'0 0.0
2018-Jul-13 13:21N 49°22' E 000°60'0 0.0
2018-Jul-13 12:51N 49°22' E 000°60'0 0.0
2018-Jul-13 12:27N 49°22' E 000°60'0 0.0
2018-Jul-13 11:57N 49°22' E 000°60'0 0.0
2018-Jul-13 11:24N 49°22' E 000°60'0 0.0
2018-Jul-13 10:51N 49°22' E 000°60'0 0.0
2018-Jul-13 10:27N 49°22' E 000°60'0 0.0
2018-Jul-13 10:00N 49°22' E 000°60'0 0.0
2018-Jul-13 09:27N 49°22' E 000°60'0 0.0
2018-Jul-13 08:57N 49°22' E 000°60'0 0.0
2018-Jul-13 08:27N 49°22' E 000°60'0 0.0
2018-Jul-13 07:57N 49°22' E 000°60'0 0.0
2018-Jul-13 07:27N 49°22' E 000°60'0 0.0
2018-Jul-13 06:51N 49°22' E 000°60'0 0.0
2018-Jul-13 06:27N 49°22' E 000°60'0 0.0
2018-Jul-13 05:57N 49°22' E 000°60'0 0.0
2018-Jul-13 05:30N 49°22' E 000°60'0 0.0
2018-Jul-13 04:57N 49°22' E 000°60'0 0.0
2018-Jul-13 04:30N 49°22' E 000°60'0 0.0
2018-Jul-13 03:51N 49°22' E 000°60'0 0.0
2018-Jul-13 03:30N 49°22' E 000°60'0 0.0
2018-Jul-13 02:51N 49°22' E 000°60'0 0.0
2018-Jul-13 02:30N 49°22' E 000°60'0 0.0
2018-Jul-13 01:57N 49°22' E 000°60'0 0.0
2018-Jul-13 01:30N 49°22' E 000°60'0 0.1
2018-Jul-13 01:00N 49°22' E 000°60'2 5.0
2018-Jul-13 00:31N 49°21' E 000°56'510.1
2018-Jul-13 00:00N 49°26' E 000°56'3 7.1
2018-Jul-12 23:31N 49°28' E 000°52'5 9.9
2018-Jul-12 23:00N 49°24' E 000°51'5 9.1
2018-Jul-12 22:30N 49°28' E 000°49'5 9.3
2018-Jul-12 22:01N 49°31' E 000°44'5 9.1
2018-Jul-12 21:31N 49°28' E 000°40'4 8.8
2018-Jul-12 21:00N 49°27' E 000°33'4 7.9
2018-Jul-12 20:30N 49°28' E 000°27'612.6
2018-Jul-12 20:00N 49°26' E 000°18'611.6
2018-Jul-12 19:30N 49°26' E 000°09'612.1
2018-Jul-12 19:00N 49°28' E 000°00'510.2
2018-Jul-12 18:30N 49°29' W 000°07'1 2.5
2018-Jul-12 17:59N 49°29' W 000°09'0 0.1
2018-Jul-12 17:29N 49°29' W 000°09'0 0.1
2018-Jul-12 16:56N 49°29' W 000°10'0 0.1
2018-Jul-12 16:29N 49°29' W 000°10'0 0.0
2018-Jul-12 15:59N 49°29' W 000°10'0 0.0
2018-Jul-12 15:29N 49°29' W 000°10'0 0.0
2018-Jul-12 14:59N 49°29' W 000°10'0 0.0
2018-Jul-12 14:29N 49°29' W 000°10'0 0.0
2018-Jul-12 13:59N 49°29' W 000°10'0 0.0
2018-Jul-12 13:29N 49°29' W 000°10'0 0.0
2018-Jul-12 12:59N 49°29' W 000°10'0 0.0
2018-Jul-12 12:28N 49°29' W 000°10'0 0.0
2018-Jul-12 11:58N 49°29' W 000°10'0 0.1
2018-Jul-12 11:28N 49°29' W 000°10'0 0.1
2018-Jul-12 10:58N 49°29' W 000°10'0 0.1
2018-Jul-12 10:25N 49°29' W 000°09'0 0.1
2018-Jul-12 09:58N 49°29' W 000°09'0 0.2
2018-Jul-12 09:28N 49°29' W 000°09'0 0.1
2018-Jul-12 08:58N 49°29' W 000°09'0 0.0
2018-Jul-12 08:25N 49°29' W 000°09'0 0.0
2018-Jul-12 07:58N 49°29' W 000°09'0 0.0
2018-Jul-12 07:28N 49°29' W 000°09'0 0.0
2018-Jul-12 06:58N 49°29' W 000°09'0 0.1
2018-Jul-12 06:28N 49°29' W 000°09'0 0.1
2018-Jul-12 05:55N 49°29' W 000°09'0 0.1
2018-Jul-12 05:28N 49°29' W 000°09'0 0.1
2018-Jul-12 04:58N 49°29' W 000°09'0 0.1
2018-Jul-12 04:28N 49°29' W 000°10'0 0.1
2018-Jul-12 03:58N 49°29' W 000°10'0 0.0
2018-Jul-12 03:25N 49°29' W 000°10'0 0.0
2018-Jul-12 02:58N 49°29' W 000°10'0 0.0
2018-Jul-12 02:28N 49°29' W 000°10'0 0.0
2018-Jul-12 01:58N 49°29' W 000°10'0 0.0
2018-Jul-12 01:28N 49°29' W 000°10'0 0.0
2018-Jul-12 00:58N 49°29' W 000°10'0 0.0
2018-Jul-12 00:28N 49°29' W 000°10'0 0.0
2018-Jul-11 23:58N 49°29' W 000°10'0 0.0
2018-Jul-11 23:28N 49°29' W 000°10'0 0.0
2018-Jul-11 22:58N 49°29' W 000°10'0 0.1
2018-Jul-11 22:28N 49°29' W 000°10'0 0.2
2018-Jul-11 21:58N 49°29' W 000°09'0 0.1
2018-Jul-11 21:25N 49°29' W 000°09'0 0.2
2018-Jul-11 20:58N 49°29' W 000°09'0 0.1
2018-Jul-11 20:28N 49°29' W 000°09'0 0.0
2018-Jul-11 19:58N 49°29' W 000°09'0 0.1
2018-Jul-11 19:28N 49°29' W 000°09'0 0.1
2018-Jul-11 18:58N 49°29' W 000°09'0 0.1
2018-Jul-11 18:28N 49°29' W 000°09'0 0.3
2018-Jul-11 18:00N 49°29' W 000°10'2 5.0
2018-Jul-11 17:30N 49°29' W 000°13'4 8.8
2018-Jul-11 17:00N 49°32' W 000°19'611.8
2018-Jul-11 16:30N 49°35' W 000°27'611.8
2018-Jul-11 15:58N 49°39' W 000°34'511.6
2018-Jul-11 15:30N 49°42' W 000°40'610.9
2018-Jul-11 14:56N 49°47' W 000°47'510.5
2018-Jul-11 14:30N 49°50' W 000°52'34 8.0
2018-Jul-11 10:19N 50°01' W 001°41'5 9.8
2018-Jul-11 09:49N 49°59' W 001°48'410.5
2018-Jul-11 09:25N 49°58' W 001°55'611.2
2018-Jul-11 08:55N 49°57' W 002°03'712.0
2018-Jul-11 08:19N 49°55' W 002°14'412.3
2018-Jul-11 08:00N 49°54' W 002°20'713.9
2018-Jul-11 07:30N 49°52' W 002°30'612.6
2018-Jul-11 07:00N 49°51' W 002°40'612.7
2018-Jul-11 06:30N 49°51' W 002°50'612.5
2018-Jul-11 06:00N 49°50' W 002°59'612.4
2018-Jul-11 05:30N 49°50' W 003°09'612.3
2018-Jul-11 05:00N 49°47' W 003°17'612.6
2018-Jul-11 04:30N 49°44' W 003°26'612.4
2018-Jul-11 04:00N 49°40' W 003°33'1412.3
2018-Jul-11 02:52N 49°31' W 003°50'5011.3
2018-Jul-10 22:28N 49°06' W 004°56'610.3
2018-Jul-10 21:53N 49°02' W 005°03'410.0
2018-Jul-10 21:31N 49°00' W 005°08'13 9.7
2018-Jul-10 20:08N 48°53' W 005°24'3 9.6
2018-Jul-10 19:51N 48°51' W 005°28'4 9.5
2018-Jul-10 19:24N 48°49' W 005°33'5 9.3
2018-Jul-10 18:53N 48°46' W 005°38'10 9.4
2018-Jul-10 17:48N 48°36' W 005°46'46 9.8
2018-Jul-10 13:06N 47°56' W 006°19'711.3
2018-Jul-10 12:29N 47°50' W 006°24'711.6
2018-Jul-10 11:54N 47°44' W 006°29'1110.9
2018-Jul-10 10:51N 47°34' W 006°37'511.7
2018-Jul-10 10:27N 47°30' W 006°41'810.8
2018-Jul-10 09:43N 47°23' W 006°46'6110.4
2018-Jul-10 03:52N 46°29' W 007°28'410.6
2018-Jul-10 03:31N 46°26' W 007°31'510.6
2018-Jul-10 03:00N 46°21' W 007°35'11210.4
2018-Jul-09 16:12N 44°42' W 008°50'410.3
2018-Jul-09 15:49N 44°39' W 008°52'310.6
2018-Jul-09 15:30N 44°36' W 008°55'510.5
2018-Jul-09 15:00N 44°31' W 008°58'510.0
2018-Jul-09 14:27N 44°27' W 009°02'510.2
2018-Jul-09 14:00N 44°23' W 009°05'510.4
2018-Jul-09 13:30N 44°18' W 009°09'510.4
2018-Jul-09 13:00N 44°14' W 009°12'  

Dump ship's entire track history